Time;durP1;ratioP1;P1;durP2;ratioP2;P2;SDS_P1;SDS_P2;PMS_P1;PMS_P2;Temp;Humidity;BMP_temperature;BMP_pressure;BME280_temperature;BME280_humidity;BME280_pressure;Samples;Min_cycle;Max_cycle;Signal;HPM_P1;HPM_P2
2023/07/15 00:00:34;;;;;;;;;;;;;;;21.31;100.00;95372.00;10483831;28;1910;-72
2023/07/15 00:05:39;;;;;;;;;;;;;;;21.37;100.00;95375.22;10473811;28;2199;-72
2023/07/15 00:10:42;;;;;;;;;;;;;;;21.30;100.00;95366.84;10480151;28;1757;-73
2023/07/15 00:15:46;;;;;;;;;;;;;;;21.22;100.00;95371.31;10470640;28;1867;-73
2023/07/15 00:20:49;;;;;;;;;;;;;;;21.20;100.00;95379.09;10473911;28;2120;-73
2023/07/15 00:25:53;;;;;;;;;;;;;;;21.24;100.00;95381.91;10463358;28;2319;-72
2023/07/15 00:30:56;;;;;;;;;;;;;;;21.23;100.00;95370.16;10468207;28;2252;-73
2023/07/15 00:36:00;;;;;;;;;;;;;;;21.23;100.00;95374.84;10472846;28;1985;-71
2023/07/15 00:41:03;;;;;;;;;;;;;;;20.98;100.00;95387.84;10471691;28;5130;-70
2023/07/15 00:46:06;;;;;;;;;;;;;;;20.78;100.00;95390.44;10469368;28;2416;-71
2023/07/15 00:51:09;;;;;;;;;;;;;;;21.07;100.00;95376.78;10462886;28;1994;-71
2023/07/15 00:56:12;;;;;;;;;;;;;;;20.88;100.00;95382.91;10462820;28;2073;-70
2023/07/15 01:01:19;;;;;;;;;;;;;;;20.92;100.00;95389.25;10449168;28;2009;-70
2023/07/15 01:06:21;;;;;;;;;;;;;;;20.93;100.00;95391.66;10463366;28;2089;-73
2023/07/15 01:11:25;;;;;;;;;;;;;;;20.85;100.00;95391.78;10465367;28;1982;-71
2023/07/15 01:16:29;;;;;;;;;;;;;;;20.65;100.00;95399.03;10468314;28;2049;-70
2023/07/15 01:21:32;;;;;;;;;;;;;;;20.61;100.00;95384.47;10471096;28;2337;-70
2023/07/15 01:26:36;;;;;;;;;;;;;;;20.80;100.00;95381.91;10466584;28;2176;-70
2023/07/15 01:31:39;;;;;;;;;;;;;;;20.66;100.00;95384.25;10460745;28;2284;-69
2023/07/15 01:36:42;;;;;;;;;;;;;;;20.63;100.00;95393.13;10444010;28;1990;-70
2023/07/15 01:41:45;;;;;;;;;;;;;;;20.73;100.00;95387.16;10463821;28;5102;-70
2023/07/15 01:46:49;;;;;;;;;;;;;;;20.74;100.00;95383.28;10446756;28;2423;-70
2023/07/15 01:51:52;;;;;;;;;;;;;;;20.62;100.00;95386.09;10462608;28;1952;-71
2023/07/15 01:56:55;;;;;;;;;;;;;;;20.65;100.00;95386.19;10463432;28;2228;-70
2023/07/15 02:01:58;;;;;;;;;;;;;;;20.68;100.00;95395.63;10462114;28;2116;-71
2023/07/15 02:07:01;;;;;;;;;;;;;;;20.82;100.00;95393.28;10462631;28;2010;-70
2023/07/15 02:12:03;;;;;;;;;;;;;;;20.67;100.00;95394.00;10466919;28;1965;-70
2023/07/15 02:17:06;;;;;;;;;;;;;;;20.77;100.00;95386.13;10469588;28;2294;-70
2023/07/15 02:22:09;;;;;;;;;;;;;;;21.01;100.00;95382.50;10468904;28;2081;-70
2023/07/15 02:27:12;;;;;;;;;;;;;;;20.73;100.00;95381.69;10464050;28;1970;-71
2023/07/15 02:32:17;;;;;;;;;;;;;;;20.70;100.00;95376.94;10439351;28;2150;-70
2023/07/15 02:37:21;;;;;;;;;;;;;;;20.61;100.00;95379.00;10444920;28;2200;-70
2023/07/15 02:42:24;;;;;;;;;;;;;;;20.67;100.00;95380.34;10462009;28;5094;-69
2023/07/15 02:47:27;;;;;;;;;;;;;;;20.75;100.00;95376.72;10452630;28;2505;-70
2023/07/15 02:52:29;;;;;;;;;;;;;;;20.55;100.00;95383.13;10458313;28;1976;-69
2023/07/15 02:57:33;;;;;;;;;;;;;;;20.58;100.00;95379.72;10459396;28;1914;-72
2023/07/15 03:02:35;;;;;;;;;;;;;;;20.63;100.00;95382.22;10457784;28;2295;-70
2023/07/15 03:07:39;;;;;;;;;;;;;;;20.52;100.00;95379.16;10459972;28;1979;-71
2023/07/15 03:12:42;;;;;;;;;;;;;;;20.58;100.00;95391.44;10462348;28;2298;-70
2023/07/15 03:17:46;;;;;;;;;;;;;;;20.40;100.00;95392.81;10463579;28;1997;-71
2023/07/15 03:22:49;;;;;;;;;;;;;;;20.30;100.00;95385.94;10464827;28;1917;-69
2023/07/15 03:27:52;;;;;;;;;;;;;;;20.59;100.00;95376.63;10472982;28;1971;-69
2023/07/15 03:32:56;;;;;;;;;;;;;;;20.27;100.00;95380.34;10461104;28;2053;-71
2023/07/15 03:38:00;;;;;;;;;;;;;;;20.45;100.00;95376.25;10450638;28;2021;-70
2023/07/15 03:43:03;;;;;;;;;;;;;;;20.51;100.00;95380.31;10462547;28;1910;-69
2023/07/15 03:48:11;;;;;;;;;;;;;;;20.58;100.00;95379.72;10460169;28;2504;-71
2023/07/15 03:53:20;;;;;;;;;;;;;;;20.77;100.00;95377.16;10465096;28;2048;-71
2023/07/15 03:58:26;;;;;;;;;;;;;;;20.91;100.00;95387.66;10471017;28;1993;-70
2023/07/15 04:03:29;;;;;;;;;;;;;;;21.11;100.00;95386.63;10469998;28;1950;-70
2023/07/15 04:08:34;;;;;;;;;;;;;;;21.20;100.00;95376.34;10472391;28;2295;-70
2023/07/15 04:13:38;;;;;;;;;;;;;;;21.36;100.00;95381.84;10468385;28;1985;-70
2023/07/15 04:18:42;;;;;;;;;;;;;;;21.54;100.00;95379.56;10477243;28;1904;-71
2023/07/15 04:23:45;;;;;;;;;;;;;;;21.68;100.00;95373.66;10460248;28;1942;-71
2023/07/15 04:28:49;;;;;;;;;;;;;;;21.86;100.00;95378.41;10473467;28;2023;-71
2023/07/15 04:33:54;;;;;;;;;;;;;;;22.02;100.00;95375.66;10459229;28;1956;-71
2023/07/15 04:38:56;;;;;;;;;;;;;;;22.23;100.00;95385.50;10468197;28;1973;-70
2023/07/15 04:43:59;;;;;;;;;;;;;;;22.33;100.00;95382.19;10467129;28;5126;-71
2023/07/15 04:49:02;;;;;;;;;;;;;;;22.57;100.00;95384.69;10468416;28;1961;-72
2023/07/15 04:54:05;;;;;;;;;;;;;;;22.73;100.00;95387.38;10453172;28;1973;-73
2023/07/15 04:59:08;;;;;;;;;;;;;;;22.96;100.00;95389.38;10463336;28;2077;-71
2023/07/15 05:04:12;;;;;;;;;;;;;;;23.07;100.00;95390.38;10467493;28;2243;-70
2023/07/15 05:09:16;;;;;;;;;;;;;;;23.17;100.00;95396.09;10481582;28;2094;-70
2023/07/15 05:14:18;;;;;;;;;;;;;;;23.34;100.00;95399.50;10473401;28;1910;-70
2023/07/15 05:19:22;;;;;;;;;;;;;;;23.60;100.00;95396.84;10465178;28;1961;-70
2023/07/15 05:24:28;;;;;;;;;;;;;;;23.70;100.00;95396.25;10469384;28;2000;-70
2023/07/15 05:29:31;;;;;;;;;;;;;;;23.99;100.00;95386.53;10464955;28;1984;-69
2023/07/15 05:34:34;;;;;;;;;;;;;;;24.13;100.00;95391.44;10467386;28;2419;-69
2023/07/15 05:39:37;;;;;;;;;;;;;;;24.36;100.00;95398.84;10462486;28;1939;-70
2023/07/15 05:44:40;;;;;;;;;;;;;;;24.43;100.00;95388.75;10462973;28;2524;-70
2023/07/15 05:49:43;;;;;;;;;;;;;;;24.41;100.00;95387.53;10474561;28;1954;-69
2023/07/15 05:54:46;;;;;;;;;;;;;;;24.63;100.00;95392.16;10456402;28;1988;-70
2023/07/15 05:59:49;;;;;;;;;;;;;;;24.90;100.00;95389.34;10462212;28;2322;-73
2023/07/15 06:04:52;;;;;;;;;;;;;;;25.73;100.00;95381.59;10465403;28;1962;-72
2023/07/15 06:09:55;;;;;;;;;;;;;;;26.19;100.00;95375.63;10472172;28;2004;-74
2023/07/15 06:14:59;;;;;;;;;;;;;;;26.59;100.00;95383.00;10473909;28;1962;-73
2023/07/15 06:20:02;;;;;;;;;;;;;;;27.04;100.00;95380.00;10470485;28;2015;-73
2023/07/15 06:25:04;;;;;;;;;;;;;;;27.25;100.00;95379.31;10478008;28;1988;-73
2023/07/15 06:30:07;;;;;;;;;;;;;;;27.39;100.00;95377.38;10466598;28;1902;-73
2023/07/15 06:35:10;;;;;;;;;;;;;;;27.79;100.00;95369.94;10464543;28;2065;-73
2023/07/15 06:40:15;;;;;;;;;;;;;;;28.01;100.00;95371.53;10464782;28;5057;-73
2023/07/15 06:45:18;;;;;;;;;;;;;;;28.28;98.70;95369.13;10463798;28;2009;-71
2023/07/15 06:50:21;;;;;;;;;;;;;;;28.62;96.08;95365.09;10460133;28;1901;-75
2023/07/15 06:55:24;;;;;;;;;;;;;;;29.02;96.92;95348.00;10464822;28;2042;-75
2023/07/15 07:00:27;;;;;;;;;;;;;;;29.16;91.28;95343.56;10462665;28;2033;-73
2023/07/15 07:05:30;;;;;;;;;;;;;;;29.39;91.33;95335.50;10474073;28;2046;-74
2023/07/15 07:10:33;;;;;;;;;;;;;;;29.93;88.66;95346.19;10472721;28;2302;-74
2023/07/15 07:15:35;;;;;;;;;;;;;;;29.82;89.93;95335.19;10470181;28;1941;-73
2023/07/15 07:20:38;;;;;;;;;;;;;;;29.81;86.66;95333.63;10471199;28;2030;-74
2023/07/15 07:25:40;;;;;;;;;;;;;;;30.19;84.01;95328.94;10476757;28;1961;-73
2023/07/15 07:30:43;;;;;;;;;;;;;;;30.55;82.15;95325.81;10471192;28;2069;-74
2023/07/15 07:35:46;;;;;;;;;;;;;;;30.83;81.62;95335.78;10463321;28;1906;-73
2023/07/15 07:40:48;;;;;;;;;;;;;;;30.87;76.33;95331.00;10472787;28;5134;-74
2023/07/15 07:45:51;;;;;;;;;;;;;;;30.74;73.09;95324.44;10469304;28;1957;-73
2023/07/15 07:50:54;;;;;;;;;;;;;;;31.00;66.46;95323.69;10467348;28;2023;-74
2023/07/15 07:55:56;;;;;;;;;;;;;;;31.39;66.28;95322.38;10464508;28;1977;-73
2023/07/15 08:00:59;;;;;;;;;;;;;;;31.35;66.06;95321.63;10469993;28;1917;-74
2023/07/15 08:06:04;;;;;;;;;;;;;;;31.57;53.89;95322.88;10445887;28;1952;-72
2023/07/15 08:11:06;;;;;;;;;;;;;;;31.96;54.88;95322.28;10464573;28;1966;-73
2023/07/15 08:16:09;;;;;;;;;;;;;;;32.05;56.32;95310.59;10469243;28;2362;-74
2023/07/15 08:21:12;;;;;;;;;;;;;;;32.07;48.26;95318.53;10463554;28;1969;-73
2023/07/15 08:26:15;;;;;;;;;;;;;;;32.11;49.94;95305.34;10464236;28;1964;-73
2023/07/15 08:31:22;;;;;;;;;;;;;;;31.97;47.90;95301.59;10467442;28;2448;-73
2023/07/15 08:36:25;;;;;;;;;;;;;;;31.61;48.09;95301.38;10463688;28;1957;-73
2023/07/15 08:41:28;;;;;;;;;;;;;;;31.95;49.68;95303.25;10470174;28;5136;-75
2023/07/15 08:46:30;;;;;;;;;;;;;;;32.09;50.56;95304.97;10473845;28;1984;-74
2023/07/15 08:51:33;;;;;;;;;;;;;;;32.08;50.03;95300.63;10475154;28;2239;-76
2023/07/15 08:56:36;;;;;;;;;;;;;;;32.11;45.86;95289.44;10464550;28;1986;-73
2023/07/15 09:01:39;;;;;;;;;;;;;;;31.79;44.49;95297.56;10468222;28;1921;-74
2023/07/15 09:06:45;;;;;;;;;;;;;;;32.01;43.74;95290.44;10467894;28;2062;-74
2023/07/15 09:11:50;;;;;;;;;;;;;;;32.20;44.12;95286.91;10470006;28;2079;-74
2023/07/15 09:16:53;;;;;;;;;;;;;;;32.14;42.87;95277.47;10468572;28;1910;-74
2023/07/15 09:21:56;;;;;;;;;;;;;;;32.48;41.75;95291.16;10467894;28;2026;-73
2023/07/15 09:26:58;;;;;;;;;;;;;;;32.58;41.04;95278.25;10466295;28;2114;-74
2023/07/15 09:32:01;;;;;;;;;;;;;;;32.33;41.27;95266.81;10465169;28;2527;-74
2023/07/15 09:37:04;;;;;;;;;;;;;;;32.24;39.55;95270.91;10472531;28;1997;-73
2023/07/15 09:42:10;;;;;;;;;;;;;;;32.42;42.16;95258.69;10470739;28;2095;-84
2023/07/15 09:47:13;;;;;;;;;;;;;;;32.69;40.06;95267.66;10467057;28;2307;-76
2023/07/15 09:52:19;;;;;;;;;;;;;;;32.87;39.01;95255.41;10467821;28;2012;-75
2023/07/15 09:57:22;;;;;;;;;;;;;;;32.28;40.77;95248.59;10464830;28;2376;-77
2023/07/15 10:02:25;;;;;;;;;;;;;;;32.48;41.82;95234.72;10465653;28;2218;-76
2023/07/15 10:07:30;;;;;;;;;;;;;;;32.84;40.94;95234.75;10464963;28;1981;-77
2023/07/15 10:12:34;;;;;;;;;;;;;;;32.72;41.69;95227.06;10471889;28;2125;-78
2023/07/15 10:17:36;;;;;;;;;;;;;;;33.06;39.44;95235.06;10464070;28;2179;-85
2023/07/15 10:22:42;;;;;;;;;;;;;;;32.78;39.37;95226.13;10462792;28;2200;-78
2023/07/15 10:27:48;;;;;;;;;;;;;;;33.15;38.87;95226.13;10465851;28;1983;-78
2023/07/15 10:32:50;;;;;;;;;;;;;;;33.04;38.09;95218.03;10462655;28;2028;-73
2023/07/15 10:37:55;;;;;;;;;;;;;;;33.25;39.36;95217.50;10470547;28;1914;-78
2023/07/15 10:42:57;;;;;;;;;;;;;;;33.54;39.20;95209.28;10468230;28;5011;-77
2023/07/15 10:48:00;;;;;;;;;;;;;;;34.44;35.75;95206.94;10470873;28;2067;-76
2023/07/15 10:53:03;;;;;;;;;;;;;;;35.01;32.85;95202.44;10473165;28;2029;-75
2023/07/15 10:58:06;;;;;;;;;;;;;;;35.42;33.06;95207.91;10460649;28;2011;-74
2023/07/15 11:03:09;;;;;;;;;;;;;;;35.68;32.40;95200.25;10459485;28;1990;-73
2023/07/15 11:08:12;;;;;;;;;;;;;;;35.44;31.57;95191.50;10461018;28;2092;-74
2023/07/15 11:13:15;;;;;;;;;;;;;;;35.50;31.69;95183.28;10460880;28;2181;-73
2023/07/15 11:18:18;;;;;;;;;;;;;;;35.37;31.14;95185.31;10464853;28;2034;-77
2023/07/15 11:23:20;;;;;;;;;;;;;;;35.52;30.88;95168.88;10461752;28;1985;-72
2023/07/15 11:28:25;;;;;;;;;;;;;;;35.87;31.48;95158.47;10468038;28;2295;-73
2023/07/15 11:33:29;;;;;;;;;;;;;;;34.91;31.25;95149.22;10464413;28;2283;-70
2023/07/15 11:38:32;;;;;;;;;;;;;;;34.37;32.71;95144.50;10455920;28;2365;-73
2023/07/15 11:43:35;;;;;;;;;;;;;;;33.86;32.66;95137.97;10458798;28;5023;-73
2023/07/15 11:48:38;;;;;;;;;;;;;;;33.77;33.01;95121.09;10460203;28;2484;-73
2023/07/15 11:53:43;;;;;;;;;;;;;;;34.00;34.14;95118.09;10464769;28;2010;-75
2023/07/15 11:58:49;;;;;;;;;;;;;;;33.79;34.06;95108.28;10469684;28;1964;-77
2023/07/15 12:03:53;;;;;;;;;;;;;;;34.09;32.90;95104.25;10453897;28;1977;-76
2023/07/15 12:08:56;;;;;;;;;;;;;;;34.17;32.29;95102.06;10462059;28;1997;-75
2023/07/15 12:13:59;;;;;;;;;;;;;;;34.20;31.60;95092.78;10466832;28;1980;-74
2023/07/15 12:19:01;;;;;;;;;;;;;;;34.41;32.79;95077.41;10463525;28;2050;-75
2023/07/15 12:24:04;;;;;;;;;;;;;;;34.51;32.09;95078.34;10465303;28;2284;-74
2023/07/15 12:29:06;;;;;;;;;;;;;;;34.75;31.48;95064.84;10468730;28;1980;-74
2023/07/15 12:34:23;;;;;;;;;;;;;;;35.14;31.83;95069.94;10479438;28;2247;-75
2023/07/15 12:39:28;;;;;;;;;;;;;;;35.30;29.76;95060.59;10463938;28;2431;-75
2023/07/15 12:44:33;;;;;;;;;;;;;;;35.33;31.58;95059.72;10457571;28;5177;-73
2023/07/15 12:49:37;;;;;;;;;;;;;;;34.80;31.07;95062.28;10464837;28;2065;-74
2023/07/15 12:54:40;;;;;;;;;;;;;;;35.09;30.33;95048.16;10472047;28;2066;-73
2023/07/15 12:59:43;;;;;;;;;;;;;;;35.32;30.44;95046.19;10465197;28;1981;-74
2023/07/15 13:04:45;;;;;;;;;;;;;;;34.80;30.20;95036.34;10472378;28;1922;-73
2023/07/15 13:09:48;;;;;;;;;;;;;;;34.77;30.63;95035.22;10459854;28;1979;-73
2023/07/15 13:14:51;;;;;;;;;;;;;;;34.52;31.40;95024.09;10464637;28;1993;-74
2023/07/15 13:19:53;;;;;;;;;;;;;;;34.73;30.88;95017.81;10460890;28;2029;-72
2023/07/15 13:24:56;;;;;;;;;;;;;;;35.27;30.71;95016.03;10462997;28;2030;-73
2023/07/15 13:29:59;;;;;;;;;;;;;;;35.45;30.19;95007.84;10467075;28;2270;-73
2023/07/15 13:35:01;;;;;;;;;;;;;;;35.43;30.59;95008.25;10458306;28;1972;-74
2023/07/15 13:40:05;;;;;;;;;;;;;;;35.62;30.14;95003.59;10460570;28;5042;-74
2023/07/15 13:45:08;;;;;;;;;;;;;;;35.07;29.81;95003.16;10454418;28;1973;-74
2023/07/15 13:50:12;;;;;;;;;;;;;;;35.08;30.11;95001.13;10465731;28;1949;-74
2023/07/15 13:55:16;;;;;;;;;;;;;;;35.22;30.61;94992.25;10464159;28;1941;-73
2023/07/15 14:00:19;;;;;;;;;;;;;;;35.39;29.88;94988.03;10459470;28;2073;-74
2023/07/15 14:05:22;;;;;;;;;;;;;;;35.29;30.06;94980.03;10461172;28;1944;-74
2023/07/15 14:10:27;;;;;;;;;;;;;;;35.28;29.76;94979.25;10469403;28;2227;-74
2023/07/15 14:15:29;;;;;;;;;;;;;;;35.57;30.64;94972.66;10458827;28;1968;-74
2023/07/15 14:20:33;;;;;;;;;;;;;;;35.50;30.51;94970.13;10457888;28;2097;-74
2023/07/15 14:25:36;;;;;;;;;;;;;;;35.62;30.28;94977.66;10460064;28;1996;-75
2023/07/15 14:30:40;;;;;;;;;;;;;;;35.93;29.77;94967.28;10458410;28;2612;-74
2023/07/15 14:35:43;;;;;;;;;;;;;;;35.79;29.62;94953.84;10435462;28;2129;-73
2023/07/15 14:40:46;;;;;;;;;;;;;;;36.20;29.49;94958.28;10451915;28;5161;-75
2023/07/15 14:45:49;;;;;;;;;;;;;;;36.16;30.89;94942.84;10462069;28;2073;-74
2023/07/15 14:50:54;;;;;;;;;;;;;;;36.31;28.35;94943.81;10464533;28;2070;-73
2023/07/15 14:55:56;;;;;;;;;;;;;;;36.52;29.66;94937.41;10461539;28;2318;-73
2023/07/15 15:00:59;;;;;;;;;;;;;;;36.43;29.19;94933.78;10459135;28;1992;-74
2023/07/15 15:06:01;;;;;;;;;;;;;;;36.34;30.13;94933.75;10455960;28;2291;-74
2023/07/15 15:11:04;;;;;;;;;;;;;;;36.37;30.32;94939.19;10462565;28;1961;-73
2023/07/15 15:16:10;;;;;;;;;;;;;;;36.75;29.76;94929.66;10459177;28;1934;-73
2023/07/15 15:21:13;;;;;;;;;;;;;;;36.71;28.80;94929.81;10460404;28;2038;-73
2023/07/15 15:26:16;;;;;;;;;;;;;;;36.34;28.80;94926.13;10462835;28;2306;-74
2023/07/15 15:31:20;;;;;;;;;;;;;;;35.40;30.35;94936.50;10463019;28;1989;-71
2023/07/15 15:36:25;;;;;;;;;;;;;;;35.35;29.52;94931.50;10467097;28;2144;-73
2023/07/15 15:41:29;;;;;;;;;;;;;;;36.09;28.99;94934.75;10469632;28;5197;-73
2023/07/15 15:46:32;;;;;;;;;;;;;;;36.49;29.24;94918.72;10466187;28;1957;-72
2023/07/15 15:51:35;;;;;;;;;;;;;;;36.32;28.83;94916.63;10467556;28;2002;-73
2023/07/15 15:56:37;;;;;;;;;;;;;;;36.76;28.05;94931.19;10467766;28;2258;-76
2023/07/15 16:01:40;;;;;;;;;;;;;;;36.33;28.80;94921.78;10470086;28;1934;-76
2023/07/15 16:06:43;;;;;;;;;;;;;;;35.67;30.07;94923.94;10468720;28;2151;-74
2023/07/15 16:11:46;;;;;;;;;;;;;;;35.55;30.61;94922.03;10462990;28;2062;-75
2023/07/15 16:16:49;;;;;;;;;;;;;;;35.42;30.35;94922.88;10464555;28;1977;-74
2023/07/15 16:21:52;;;;;;;;;;;;;;;35.22;29.52;94925.19;10465170;28;2335;-73
2023/07/15 16:26:56;;;;;;;;;;;;;;;34.98;29.05;94926.88;10472341;28;1973;-73
2023/07/15 16:31:58;;;;;;;;;;;;;;;35.06;28.97;94928.19;10459759;28;1934;-75
2023/07/15 16:37:02;;;;;;;;;;;;;;;35.27;28.59;94932.22;10457423;28;2135;-75
2023/07/15 16:42:04;;;;;;;;;;;;;;;35.25;28.42;94918.72;10462619;28;5134;-74
2023/07/15 16:47:08;;;;;;;;;;;;;;;34.94;28.95;94922.22;10466057;28;1997;-74
2023/07/15 16:52:10;;;;;;;;;;;;;;;34.55;29.18;94914.38;10459922;28;2047;-74
2023/07/15 16:57:13;;;;;;;;;;;;;;;34.44;29.47;94917.53;10464599;28;1965;-74
2023/07/15 17:02:16;;;;;;;;;;;;;;;34.31;29.50;94919.53;10446619;28;2241;-75
2023/07/15 17:07:19;;;;;;;;;;;;;;;34.07;30.64;94921.91;10463101;28;2008;-75
2023/07/15 17:12:22;;;;;;;;;;;;;;;33.94;30.94;94919.13;10462432;28;1906;-74
2023/07/15 17:17:25;;;;;;;;;;;;;;;33.90;31.80;94935.13;10457619;28;2428;-74
2023/07/15 17:22:28;;;;;;;;;;;;;;;33.74;31.75;94935.25;10465429;28;1972;-74
2023/07/15 17:27:31;;;;;;;;;;;;;;;33.61;31.56;94926.88;10465851;28;2293;-73
2023/07/15 17:32:34;;;;;;;;;;;;;;;33.55;31.77;94931.44;10460402;28;2024;-74
2023/07/15 17:37:37;;;;;;;;;;;;;;;33.36;32.33;94924.78;10454179;28;2172;-74
2023/07/15 17:42:40;;;;;;;;;;;;;;;33.18;32.41;94921.72;10447100;28;5102;-73
2023/07/15 17:47:42;;;;;;;;;;;;;;;33.06;32.22;94920.47;10441974;28;2299;-74
2023/07/15 17:52:46;;;;;;;;;;;;;;;32.93;32.69;94922.41;10471054;28;2269;-73
2023/07/15 17:57:53;;;;;;;;;;;;;;;32.67;36.26;94924.28;10443304;28;2046;-74
2023/07/15 18:02:58;;;;;;;;;;;;;;;32.52;38.37;94918.31;10448218;28;1927;-73
2023/07/15 18:08:01;;;;;;;;;;;;;;;32.41;39.93;94923.34;10460320;28;2136;-75
2023/07/15 18:13:04;;;;;;;;;;;;;;;32.23;41.42;94930.09;10460996;28;2298;-74
2023/07/15 18:18:07;;;;;;;;;;;;;;;32.23;41.99;94934.88;10471971;28;1958;-74
2023/07/15 18:23:11;;;;;;;;;;;;;;;32.16;43.27;94935.84;10457002;28;1964;-74
2023/07/15 18:28:14;;;;;;;;;;;;;;;32.02;44.85;94938.97;10464932;28;2307;-74
2023/07/15 18:33:17;;;;;;;;;;;;;;;31.74;46.39;94932.81;10454196;28;2010;-74
2023/07/15 18:38:21;;;;;;;;;;;;;;;31.51;48.59;94941.28;10465722;28;2112;-75
2023/07/15 18:43:24;;;;;;;;;;;;;;;31.25;50.91;94933.91;10456491;28;5105;-75
2023/07/15 18:48:27;;;;;;;;;;;;;;;31.06;53.86;94944.53;10453725;28;2018;-74
2023/07/15 18:53:31;;;;;;;;;;;;;;;30.87;56.38;94942.53;10462575;28;1992;-73
2023/07/15 18:58:34;;;;;;;;;;;;;;;30.71;58.75;94947.97;10461204;28;1931;-74
2023/07/15 19:03:38;;;;;;;;;;;;;;;30.44;62.35;94945.25;10452873;28;1981;-74
2023/07/15 19:08:41;;;;;;;;;;;;;;;30.15;65.64;94945.69;10460368;28;1982;-76
2023/07/15 19:13:44;;;;;;;;;;;;;;;29.95;68.88;94940.03;10460085;28;2028;-75
2023/07/15 19:18:47;;;;;;;;;;;;;;;29.75;71.34;94951.03;10458531;28;1974;-75
2023/07/15 19:23:50;;;;;;;;;;;;;;;29.54;73.19;94952.13;10458469;28;1965;-75
2023/07/15 19:28:54;;;;;;;;;;;;;;;29.36;75.56;94957.06;10456011;28;2398;-76
2023/07/15 19:33:57;;;;;;;;;;;;;;;29.05;78.17;94968.09;10456937;28;1964;-75
2023/07/15 19:39:00;;;;;;;;;;;;;;;28.94;80.64;94961.88;10457340;28;2228;-76
2023/07/15 19:44:03;;;;;;;;;;;;;;;28.69;83.01;94961.31;10457247;28;5037;-76
2023/07/15 19:49:06;;;;;;;;;;;;;;;28.54;84.74;94963.44;10438641;28;1954;-76
2023/07/15 19:54:10;;;;;;;;;;;;;;;28.37;85.76;94967.94;10458408;28;2260;-77
2023/07/15 19:59:13;;;;;;;;;;;;;;;28.23;87.01;94956.97;10467195;28;2008;-75
2023/07/15 20:04:15;;;;;;;;;;;;;;;28.18;87.96;94966.47;10465449;28;2428;-78
2023/07/15 20:09:18;;;;;;;;;;;;;;;28.15;88.84;94961.00;10454221;28;2044;-78
2023/07/15 20:14:21;;;;;;;;;;;;;;;28.09;87.97;94959.84;10457089;28;1995;-77
2023/07/15 20:19:24;;;;;;;;;;;;;;;28.00;89.23;94954.81;10471662;28;2045;-77
2023/07/15 20:24:27;;;;;;;;;;;;;;;27.94;90.06;94948.91;10459118;28;2301;-77
2023/07/15 20:29:30;;;;;;;;;;;;;;;27.85;90.43;94956.84;10464328;28;1991;-80
2023/07/15 20:34:33;;;;;;;;;;;;;;;27.61;91.97;94964.09;10488694;28;1933;-77
2023/07/15 20:39:43;;;;;;;;;;;;;;;27.32;93.44;94957.91;10459882;28;5075;-78
2023/07/15 20:44:46;;;;;;;;;;;;;;;27.28;94.47;94957.13;10455883;28;1902;-78
2023/07/15 20:49:49;;;;;;;;;;;;;;;27.04;95.27;94961.56;10472191;28;1991;-77
2023/07/15 20:54:54;;;;;;;;;;;;;;;27.02;96.54;94958.38;10470407;28;1982;-77
2023/07/15 20:59:57;;;;;;;;;;;;;;;26.91;97.04;94958.44;10471663;28;2011;-75
2023/07/15 21:05:10;;;;;;;;;;;;;;;26.98;97.03;94956.84;10444976;28;1914;-75
2023/07/15 21:10:18;;;;;;;;;;;;;;;26.88;98.93;94948.19;10474387;28;2308;-72
2023/07/15 21:15:20;;;;;;;;;;;;;;;26.97;98.44;94958.78;10470547;28;1973;-71
2023/07/15 21:20:23;;;;;;;;;;;;;;;26.89;100.00;94977.34;10468759;28;1958;-71
2023/07/15 21:25:26;;;;;;;;;;;;;;;26.80;100.00;94996.28;10464173;28;2371;-76
2023/07/15 21:30:29;;;;;;;;;;;;;;;26.67;100.00;95003.38;10471413;28;1926;-76
2023/07/15 21:35:33;;;;;;;;;;;;;;;26.57;100.00;95021.50;10467287;28;1829;-75
2023/07/15 21:40:37;;;;;;;;;;;;;;;26.40;100.00;95027.78;10458576;28;5153;-77
2023/07/15 21:45:41;;;;;;;;;;;;;;;26.14;100.00;95037.19;10467874;28;1875;-77
2023/07/15 21:50:45;;;;;;;;;;;;;;;25.95;100.00;95041.09;10468142;28;1918;-76
2023/07/15 21:55:47;;;;;;;;;;;;;;;25.79;100.00;95041.47;10465822;28;1947;-76
2023/07/15 22:00:50;;;;;;;;;;;;;;;25.60;100.00;95048.06;10467290;28;2240;-77
2023/07/15 22:05:55;;;;;;;;;;;;;;;25.40;100.00;95071.56;10463030;28;2088;-77
2023/07/15 22:10:58;;;;;;;;;;;;;;;25.26;100.00;95066.00;10439236;28;1959;-77
2023/07/15 22:16:01;;;;;;;;;;;;;;;25.11;100.00;95087.09;10455440;28;1922;-76
2023/07/15 22:21:13;;;;;;;;;;;;;;;24.91;100.00;95094.00;10454806;28;2153;-77
2023/07/15 22:26:16;;;;;;;;;;;;;;;24.80;100.00;95115.91;10465848;28;2311;-76
2023/07/15 22:31:22;;;;;;;;;;;;;;;24.68;100.00;95138.19;10443083;28;1969;-76
2023/07/15 22:36:25;;;;;;;;;;;;;;;24.58;100.00;95139.69;10466920;28;1883;-76
2023/07/15 22:41:29;;;;;;;;;;;;;;;24.42;100.00;95156.41;10463659;28;5083;-77
2023/07/15 22:46:32;;;;;;;;;;;;;;;24.40;100.00;95171.69;10457513;28;1888;-77
2023/07/15 22:51:34;;;;;;;;;;;;;;;24.11;100.00;95174.09;10461200;28;2001;-77
2023/07/15 22:56:40;;;;;;;;;;;;;;;23.88;100.00;95187.16;10463023;28;1985;-76
2023/07/15 23:01:42;;;;;;;;;;;;;;;23.52;100.00;95185.84;10458491;28;2163;-78
2023/07/15 23:06:45;;;;;;;;;;;;;;;23.37;100.00;95182.91;10481040;28;1898;-77
2023/07/15 23:11:51;;;;;;;;;;;;;;;23.24;100.00;95178.00;10464734;28;1974;-76
2023/07/15 23:16:54;;;;;;;;;;;;;;;23.10;100.00;95182.13;10462886;28;1958;-77
2023/07/15 23:21:57;;;;;;;;;;;;;;;23.19;100.00;95234.72;10465783;28;1917;-76
2023/07/15 23:27:03;;;;;;;;;;;;;;;23.32;100.00;95334.06;10448741;28;2287;-77
2023/07/15 23:32:06;;;;;;;;;;;;;;;23.09;100.00;95330.50;10446901;28;2077;-77
2023/07/15 23:37:09;;;;;;;;;;;;;;;22.86;100.00;95317.56;10464180;28;1926;-77
2023/07/15 23:42:13;;;;;;;;;;;;;;;22.70;100.00;95335.22;10465909;28;5138;-77
2023/07/15 23:47:16;;;;;;;;;;;;;;;22.30;100.00;95337.16;10477573;28;2027;-77
2023/07/15 23:52:19;;;;;;;;;;;;;;;21.96;100.00;95352.44;10466215;28;2480;-77
2023/07/15 23:57:21;;;;;;;;;;;;;;;21.58;100.00;95356.63;10454157;28;1905;-76
